Time;durP1;ratioP1;P1;durP2;ratioP2;P2;SDS_P1;SDS_P2;PMS_P1;PMS_P2;Temp;Humidity;BMP_temperature;BMP_pressure;BME280_temperature;BME280_humidity;BME280_pressure;Samples;Min_cycle;Max_cycle;Signal;HPM_P1;HPM_P2
2023/09/13 00:00:45;;;;;;;;;;;;;;;15.42;70.20;97803.50;10453782;28;20151;-54
2023/09/13 00:05:46;;;;;;;16.15;9.48;;;;;;;15.40;70.28;97786.13;10454158;28;19970;-54
2023/09/13 00:10:45;;;;;;;14.68;9.40;;;;;;;15.42;70.20;97781.72;10454904;28;20055;-53
2023/09/13 00:15:44;;;;;;;;;;;;;;;15.39;70.28;97797.50;10455638;28;20040;-53
2023/09/13 00:20:43;;;;;;;15.53;10.17;;;;;;;15.21;70.42;97776.03;10454131;28;19947;-53
2023/09/13 00:25:42;;;;;;;17.92;9.73;;;;;;;15.32;71.59;97788.91;10454494;28;20063;-53
2023/09/13 00:30:41;;;;;;;;;;;;;;;15.30;71.27;97784.59;10454823;28;20122;-53
2023/09/13 00:35:40;;;;;;;13.93;8.98;;;;;;;15.29;71.80;97783.69;10454473;28;19912;-53
2023/09/13 00:40:39;;;;;;;;;;;;;;;15.23;71.97;97789.94;10455051;28;20124;-53
2023/09/13 00:45:38;;;;;;;14.40;7.82;;;;;;;15.19;71.99;97790.88;10454278;28;20020;-54
2023/09/13 00:50:37;;;;;;;15.75;8.70;;;;;;;15.11;72.31;97787.56;10453335;28;20063;-53
2023/09/13 00:55:38;;;;;;;15.63;8.43;;;;;;;15.02;72.71;97787.72;10451159;28;20059;-54
2023/09/13 01:00:37;;;;;;;13.60;8.13;;;;;;;14.98;72.57;97794.75;10452203;28;20123;-53
2023/09/13 01:05:37;;;;;;;15.68;8.80;;;;;;;14.96;72.39;97795.66;10452712;28;20103;-53
2023/09/13 01:10:35;;;;;;;12.23;8.32;;;;;;;14.85;72.88;97801.09;10453258;28;20120;-54
2023/09/13 01:15:38;;;;;;;;;;;;;;;14.80;72.38;97795.94;10452373;28;20406;-53
2023/09/13 01:20:45;;;;;;;16.42;8.00;;;;;;;14.70;72.57;97794.34;10452536;28;19981;-53
2023/09/13 01:25:59;;;;;;;15.93;8.18;;;;;;;14.65;72.56;97796.16;10451011;28;20542;-53
2023/09/13 01:30:58;;;;;;;15.98;7.43;;;;;;;14.65;72.48;97801.38;10451871;28;20070;-52
2023/09/13 01:35:57;;;;;;;11.48;6.97;;;;;;;14.54;73.09;97795.47;10451663;28;20063;-53
2023/09/13 01:41:14;;;;;;;12.88;7.05;;;;;;;14.41;73.49;97800.91;10450511;28;20070;-53
2023/09/13 01:46:13;;;;;;;12.90;6.15;;;;;;;14.36;73.36;97797.50;10450440;28;20067;-53
2023/09/13 01:51:12;;;;;;;;;;;;;;;14.30;74.04;97788.88;10450582;28;20042;-53
2023/09/13 01:56:11;;;;;;;15.20;8.90;;;;;;;14.28;73.96;97783.69;10449921;28;19920;-53
2023/09/13 02:01:10;;;;;;;;;;;;;;;14.16;75.58;97787.34;10449542;28;20059;-53
2023/09/13 02:06:09;;;;;;;11.68;8.60;;;;;;;14.15;75.91;97796.06;10449052;28;19959;-54
2023/09/13 02:11:08;;;;;;;;;;;;;;;14.16;75.56;97787.34;10451086;28;20086;-53
2023/09/13 02:16:07;;;;;;;15.20;9.38;;;;;;;14.21;75.32;97797.72;10449836;28;19951;-54
2023/09/13 02:21:06;;;;;;;15.15;8.90;;;;;;;14.16;75.84;97796.94;10450151;28;20056;-53
2023/09/13 02:26:05;;;;;;;;;;;;;;;14.13;75.79;97795.22;10450303;28;20403;-53
2023/09/13 02:31:04;;;;;;;14.20;8.57;;;;;;;14.08;76.52;97786.59;10449611;28;19955;-53
2023/09/13 02:36:03;;;;;;;;;;;;;;;13.98;76.33;97791.09;10446762;28;20059;-53
2023/09/13 02:41:03;;;;;;;18.13;8.73;;;;;;;13.93;75.98;97786.81;10448845;28;19969;-53
2023/09/13 02:46:02;;;;;;;15.68;8.52;;;;;;;13.84;76.13;97785.19;10449138;28;20056;-53
2023/09/13 02:51:01;;;;;;;18.23;9.55;;;;;;;13.81;76.55;97782.63;10449061;28;20055;-53
2023/09/13 02:56:05;;;;;;;16.83;9.77;;;;;;;13.72;76.62;97785.34;10449012;28;20096;-53
2023/09/13 03:01:10;;;;;;;18.05;10.20;;;;;;;13.69;76.80;97798.44;10450154;28;20086;-53
2023/09/13 03:06:13;;;;;;;14.77;9.10;;;;;;;13.55;77.88;97804.69;10457372;28;20115;-53
2023/09/13 03:11:18;;;;;;;20.98;8.82;;;;;;;13.53;77.32;97793.38;10459576;28;20475;-53
2023/09/13 03:16:20;;;;;;;15.32;9.43;;;;;;;13.46;78.11;97794.31;10460379;28;20098;-53
2023/09/13 03:21:20;;;;;;;16.17;8.60;;;;;;;13.12;80.32;97805.16;10459043;28;20070;-53
2023/09/13 03:26:21;;;;;;;12.93;8.20;;;;;;;12.99;80.58;97807.88;10458743;28;20075;-53
2023/09/13 03:31:23;;;;;;;20.15;8.93;;;;;;;13.00;80.30;97823.50;10457683;28;20078;-53
2023/09/13 03:36:26;;;;;;;18.30;10.20;;;;;;;12.68;80.30;97772.56;10458141;28;20055;-53
2023/09/13 03:41:26;;;;;;;17.55;11.82;;;;;;;12.99;79.41;97819.16;10459603;28;20066;-52
2023/09/13 03:46:25;;;;;;;15.98;10.88;;;;;;;12.50;79.57;97741.50;10459186;28;20071;-53
2023/09/13 03:51:24;;;;;;;14.30;10.00;;;;;;;12.61;79.30;97763.09;10459017;28;20060;-53
2023/09/13 03:56:23;;;;;;;16.90;9.77;;;;;;;12.81;79.71;97799.34;10458892;28;20072;-53
2023/09/13 04:01:24;;;;;;;14.77;9.80;;;;;;;12.95;79.95;97822.66;10458384;28;20107;-53
2023/09/13 04:06:23;;;;;;;18.48;9.60;;;;;;;12.93;80.03;97824.44;10456215;28;20063;-53
2023/09/13 04:11:22;;;;;;;15.48;9.45;;;;;;;12.91;80.58;97827.06;10455078;28;20679;-53
2023/09/13 04:16:21;;;;;;;16.33;8.82;;;;;;;12.96;80.38;97821.81;10452484;28;20624;-53
2023/09/13 04:21:20;;;;;;;14.10;9.02;;;;;;;13.03;79.88;97820.00;10453047;28;20023;-53
2023/09/13 04:26:21;;;;;;;;;;;;;;;13.08;80.04;97834.72;10454961;28;20067;-54
2023/09/13 04:31:20;;;;;;;24.33;10.73;;;;;;;13.20;79.87;97820.69;10454522;28;19955;-53
2023/09/13 04:36:19;;;;;;;16.13;10.00;;;;;;;13.25;79.95;97818.03;10453996;28;20050;-53
2023/09/13 04:41:18;;;;;;;23.77;11.77;;;;;;;13.36;79.96;97824.00;10453776;28;20087;-53
2023/09/13 04:46:17;;;;;;;24.92;11.38;;;;;;;13.44;80.05;97821.31;10452151;28;20415;-53
2023/09/13 04:51:16;;;;;;;20.55;11.25;;;;;;;13.51;80.46;97812.53;10451485;28;20040;-53
2023/09/13 04:56:15;;;;;;;23.83;13.35;;;;;;;13.51;80.12;97768.22;10451382;28;20105;-53
2023/09/13 05:01:16;;;;;;;18.05;11.20;;;;;;;13.87;79.38;97813.84;10450499;28;20585;-53
2023/09/13 05:06:15;;;;;;;23.70;11.40;;;;;;;13.90;79.20;97805.13;10452080;28;20491;-53
2023/09/13 05:11:14;;;;;;;33.65;13.57;;;;;;;13.89;78.15;97808.59;10451775;28;20060;-53
2023/09/13 05:16:14;;;;;;;;;;;;;;;14.08;76.88;97830.13;10449453;28;20036;-53
2023/09/13 05:21:13;;;;;;;28.93;12.00;;;;;;;14.18;76.87;97836.91;10451827;28;19955;-53
2023/09/13 05:26:11;;;;;;;20.08;12.35;;;;;;;14.35;76.38;97839.28;10449920;28;20035;-53
2023/09/13 05:31:10;;;;;;;20.77;11.05;;;;;;;14.54;75.42;97834.63;10451544;28;20036;-53
2023/09/13 05:36:10;;;;;;;22.90;11.05;;;;;;;14.71;74.93;97837.91;10446137;28;20012;-53
2023/09/13 05:41:11;;;;;;;15.27;9.95;;;;;;;14.82;74.79;97820.25;10451184;28;20059;-53
2023/09/13 05:46:10;;;;;;;16.90;10.05;;;;;;;15.07;73.85;97825.06;10445789;28;20804;-53
2023/09/13 05:51:09;;;;;;;;;;;;;;;15.21;74.02;97819.59;10450460;28;20761;-53
2023/09/13 05:56:11;;;;;;;18.55;10.68;;;;;;;15.56;73.07;97815.44;10447903;28;19912;-53
2023/09/13 06:01:13;;;;;;;21.63;11.48;;;;;;;15.90;72.56;97818.25;10447182;28;20075;-54
2023/09/13 06:06:12;;;;;;;16.95;9.68;;;;;;;16.34;70.41;97812.94;10447472;28;20148;-53
2023/09/13 06:11:11;;;;;;;;;;;;;;;16.57;70.50;97810.63;10452423;28;20020;-54
2023/09/13 06:16:09;;;;;;;23.40;10.27;;;;;;;16.57;69.21;97768.72;10451736;28;20391;-54
2023/09/13 06:21:08;;;;;;;18.35;9.55;;;;;;;17.17;67.62;97800.41;10451400;28;20505;-53
2023/09/13 06:26:08;;;;;;;;;;;;;;;17.40;67.15;97802.41;10452291;28;20111;-53
2023/09/13 06:31:10;;;;;;;14.15;9.60;;;;;;;17.77;65.30;97803.09;10451756;28;20011;-53
2023/09/13 06:36:09;;;;;;;21.50;9.85;;;;;;;18.00;64.62;97800.72;10451087;28;20055;-53
2023/09/13 06:41:08;;;;;;;24.08;13.23;;;;;;;18.29;63.38;97797.19;10451116;28;20071;-53
2023/09/13 06:46:07;;;;;;;28.45;15.05;;;;;;;18.53;62.62;97809.56;10450642;28;20032;-54
2023/09/13 06:51:06;;;;;;;20.08;10.48;;;;;;;18.79;60.65;97800.00;10450095;28;20055;-53
2023/09/13 06:56:05;;;;;;;18.38;9.35;;;;;;;18.99;59.75;97801.94;10450763;28;20024;-54
2023/09/13 07:01:04;;;;;;;13.50;6.10;;;;;;;19.35;57.63;97798.97;10450991;28;20034;-53
2023/09/13 07:06:03;;;;;;;12.25;6.18;;;;;;;19.12;56.55;97698.03;10450356;28;20029;-54
2023/09/13 07:11:02;;;;;;;11.38;6.90;;;;;;;20.04;55.48;97791.16;10448881;28;20043;-54
2023/09/13 07:16:01;;;;;;;10.50;6.47;;;;;;;20.15;54.89;97783.69;10447097;28;20119;-53
2023/09/13 07:21:00;;;;;;;8.13;5.85;;;;;;;20.59;54.46;97798.69;10447657;28;20046;-55
2023/09/13 07:25:59;;;;;;;11.82;5.78;;;;;;;20.97;53.37;97790.97;10447358;28;20081;-54
2023/09/13 07:30:58;;;;;;;11.88;5.43;;;;;;;21.30;51.70;97796.59;10445794;28;20115;-54
2023/09/13 07:35:57;;;;;;;11.63;6.35;;;;;;;21.72;51.77;97792.97;10445183;28;20021;-53
2023/09/13 07:40:56;;;;;;;13.25;5.55;;;;;;;22.05;50.53;97787.94;10444312;28;20047;-55
2023/09/13 07:45:55;;;;;;;16.95;5.40;;;;;;;22.43;49.80;97779.97;10443888;28;20032;-54
2023/09/13 07:50:54;;;;;;;9.45;6.10;;;;;;;22.76;49.22;97773.97;10451509;28;20097;-54
2023/09/13 07:55:55;;;;;;;11.23;5.60;;;;;;;23.13;47.86;97769.47;10452602;28;20016;-54
2023/09/13 08:00:54;;;;;;;12.18;5.63;;;;;;;22.93;47.69;97670.78;10452540;28;20134;-55
2023/09/13 08:05:55;;;;;;;10.48;5.90;;;;;;;23.81;46.78;97758.81;10452631;28;20075;-55
2023/09/13 08:10:54;;;;;;;9.25;5.60;;;;;;;24.27;44.74;97759.81;10454080;28;20056;-55
2023/09/13 08:15:53;;;;;;;9.60;4.80;;;;;;;24.60;42.65;97757.97;10449625;28;20040;-55
2023/09/13 08:20:52;;;;;;;11.20;5.35;;;;;;;24.92;42.94;97757.91;10453633;28;20032;-55
2023/09/13 08:25:51;;;;;;;9.48;5.40;;;;;;;25.31;42.21;97749.34;10453632;28;20034;-55
2023/09/13 08:30:51;;;;;;;9.65;5.53;;;;;;;25.65;41.08;97744.66;10452893;28;20038;-55
2023/09/13 08:35:50;;;;;;;9.40;4.90;;;;;;;25.96;39.19;97746.22;10452110;28;20487;-55
2023/09/13 08:40:51;;;;;;;9.43;5.43;;;;;;;26.26;37.91;97738.13;10453576;28;20839;-55
2023/09/13 08:45:51;;;;;;;11.43;5.03;;;;;;;26.55;36.49;97728.19;10452310;28;20187;-54
2023/09/13 08:50:50;;;;;;;10.57;5.13;;;;;;;26.91;36.27;97723.19;10449443;28;20106;-54
2023/09/13 08:55:50;;;;;;;12.77;4.95;;;;;;;27.30;35.27;97713.44;10451963;28;20455;-54
2023/09/13 09:00:52;;;;;;;9.43;4.57;;;;;;;27.59;34.43;97722.09;10450377;28;20055;-55
2023/09/13 09:05:52;;;;;;;10.25;4.57;;;;;;;27.79;32.74;97721.50;10450804;28;20119;-54
2023/09/13 09:10:56;;;;;;;11.98;5.03;;;;;;;28.01;33.54;97714.63;10448791;28;20051;-55
2023/09/13 09:15:58;;;;;;;8.57;4.43;;;;;;;28.16;32.49;97705.53;10453444;28;20080;-55
2023/09/13 09:20:58;;;;;;;5.85;4.18;;;;;;;28.40;31.79;97694.00;10448712;28;20064;-55
2023/09/13 09:25:59;;;;;;;7.15;4.30;;;;;;;28.65;31.57;97712.53;10450359;28;20150;-55
2023/09/13 09:31:00;;;;;;;20.15;4.65;;;;;;;28.80;31.47;97705.22;10452254;28;20071;-55
2023/09/13 09:36:00;;;;;;;11.32;5.25;;;;;;;29.02;30.12;97709.78;10451429;28;20055;-54
2023/09/13 09:41:03;;;;;;;7.25;4.95;;;;;;;29.05;30.69;97668.63;10453157;28;20118;-55
2023/09/13 09:46:02;;;;;;;8.00;4.95;;;;;;;29.47;29.58;97714.38;10452869;28;20059;-55
2023/09/13 09:51:02;;;;;;;9.93;4.40;;;;;;;29.43;29.08;97689.69;10447396;28;20035;-55
2023/09/13 09:56:01;;;;;;;7.68;4.05;;;;;;;29.47;29.21;97668.91;10451594;28;20052;-55
2023/09/13 10:01:02;;;;;;;10.77;4.82;;;;;;;29.75;28.19;97702.31;10445595;28;20487;-55
2023/09/13 10:06:09;;;;;;;6.88;3.92;;;;;;;29.89;28.28;97696.72;10445841;28;20052;-55
2023/09/13 10:11:29;;;;;;;8.15;4.10;;;;;;;29.99;28.03;97682.59;10447806;28;20130;-55
2023/09/13 10:16:31;;;;;;;6.22;4.20;;;;;;;29.70;27.13;97686.63;10447701;28;20135;-55
2023/09/13 10:21:32;;;;;;;6.07;3.88;;;;;;;29.94;26.16;97687.50;10447195;28;20906;-55
2023/09/13 10:26:33;;;;;;;8.43;4.00;;;;;;;29.82;25.28;97641.16;10447405;28;20107;-55
2023/09/13 10:31:38;;;;;;;6.85;3.80;;;;;;;30.35;25.35;97665.31;10447593;28;20147;-53
2023/09/13 10:36:39;;;;;;;7.95;3.95;;;;;;;30.51;24.78;97673.81;10446446;28;20127;-55
2023/09/13 10:41:49;;;;;;;7.97;3.90;;;;;;;30.64;24.46;97665.59;10444698;28;20102;-55
2023/09/13 10:46:48;;;;;;;5.55;3.70;;;;;;;30.56;23.53;97646.63;10446714;28;20460;-55
2023/09/13 10:51:48;;;;;;;9.25;4.03;;;;;;;30.79;23.84;97665.28;10445585;28;20122;-55
2023/09/13 10:56:48;;;;;;;10.75;4.05;;;;;;;31.01;23.95;97662.50;10443471;28;20455;-55
2023/09/13 11:01:48;;;;;;;7.82;3.85;;;;;;;30.93;23.92;97620.22;10445757;28;20469;-55
2023/09/13 11:06:48;;;;;;;6.03;3.55;;;;;;;31.23;24.28;97653.44;10444633;28;20237;-53
2023/09/13 11:11:51;;;;;;;10.50;4.40;;;;;;;31.54;23.66;97643.56;10444858;28;20510;-56
2023/09/13 11:16:50;;;;;;;6.97;3.72;;;;;;;31.51;23.57;97646.53;10445552;28;20060;-54
2023/09/13 11:21:52;;;;;;;6.55;4.05;;;;;;;31.44;23.99;97597.06;10445895;28;20036;-54
2023/09/13 11:26:54;;;;;;;8.68;4.10;;;;;;;31.81;23.43;97639.41;10454400;28;20704;-54
2023/09/13 11:32:01;;;;;;;6.10;3.80;;;;;;;31.76;23.03;97637.16;10453592;28;20059;-54
2023/09/13 11:37:04;;;;;;;9.43;4.73;;;;;;;31.97;22.67;97629.00;10453687;28;20112;-54
2023/09/13 11:42:05;;;;;;;10.13;4.97;;;;;;;31.98;22.57;97630.69;10453039;28;20115;-54
2023/09/13 11:47:09;;;;;;;9.65;4.30;;;;;;;31.77;23.18;97584.31;10453390;28;20059;-54
2023/09/13 11:52:08;;;;;;;9.45;4.95;;;;;;;32.07;22.30;97623.66;10451321;28;20063;-54
2023/09/13 11:57:12;;;;;;;7.07;4.03;;;;;;;31.76;20.91;97566.53;10452408;28;20020;-54
2023/09/13 12:02:12;;;;;;;6.85;4.38;;;;;;;32.39;20.79;97622.56;10452286;28;20048;-54
2023/09/13 12:07:11;;;;;;;7.60;4.35;;;;;;;32.17;19.29;97596.81;10452079;28;20116;-54
2023/09/13 12:12:10;;;;;;;10.93;4.35;;;;;;;32.50;20.01;97608.09;10452003;28;20773;-54
2023/09/13 12:17:09;;;;;;;11.30;4.63;;;;;;;32.22;18.93;97565.88;10452662;28;20032;-55
2023/09/13 12:22:13;;;;;;;7.90;4.50;;;;;;;32.69;19.03;97613.47;10451185;28;20035;-55
2023/09/13 12:27:12;;;;;;;12.27;4.45;;;;;;;32.88;18.89;97614.41;10452238;28;20123;-55
2023/09/13 12:32:12;;;;;;;6.97;4.40;;;;;;;32.93;19.53;97591.50;10451587;28;20109;-55
2023/09/13 12:37:11;;;;;;;10.95;4.70;;;;;;;33.23;19.71;97603.88;10450729;28;20051;-55
2023/09/13 12:42:10;;;;;;;7.28;4.40;;;;;;;33.19;19.39;97594.41;10450795;28;20090;-55
2023/09/13 12:47:09;;;;;;;9.55;4.60;;;;;;;33.06;19.71;97561.59;10450901;28;20119;-55
2023/09/13 12:52:08;;;;;;;9.82;4.65;;;;;;;33.19;20.23;97591.72;10450083;28;20031;-55
2023/09/13 12:57:09;;;;;;;8.60;4.43;;;;;;;33.23;20.23;97585.06;10450562;28;20023;-55
2023/09/13 13:02:16;;;;;;;9.82;4.72;;;;;;;33.02;20.64;97585.25;10450040;28;20059;-55
2023/09/13 13:07:24;;;;;;;10.55;5.35;;;;;;;33.16;20.58;97581.28;10447279;28;20582;-56
2023/09/13 13:12:23;;;;;;;9.48;4.57;;;;;;;33.36;20.30;97573.09;10447791;28;20131;-55
2023/09/13 13:17:23;;;;;;;8.60;4.63;;;;;;;33.27;20.19;97561.38;10448517;28;20074;-55
2023/09/13 13:22:23;;;;;;;10.18;4.28;;;;;;;33.12;20.25;97560.19;10445768;28;20111;-54
2023/09/13 13:27:22;;;;;;;8.75;4.28;;;;;;;33.13;20.75;97545.75;10449840;28;20072;-55
2023/09/13 13:32:21;;;;;;;8.35;4.55;;;;;;;32.67;20.16;97508.00;10449235;28;20082;-55
2023/09/13 13:37:20;;;;;;;7.47;4.55;;;;;;;33.01;20.20;97555.81;10448951;28;20112;-55
2023/09/13 13:42:19;;;;;;;7.93;4.05;;;;;;;33.02;19.94;97546.75;10449088;28;20024;-54
2023/09/13 13:47:18;;;;;;;11.93;4.75;;;;;;;33.03;20.45;97543.91;10449094;28;20035;-54
2023/09/13 13:52:17;;;;;;;8.93;4.15;;;;;;;32.94;19.98;97542.13;10446317;28;20497;-54
2023/09/13 13:57:16;;;;;;;8.50;4.13;;;;;;;32.79;20.01;97539.06;10447362;28;20024;-55
2023/09/13 14:02:15;;;;;;;7.90;3.90;;;;;;;32.91;20.53;97525.44;10446731;28;20035;-55
2023/09/13 14:07:14;;;;;;;7.25;4.03;;;;;;;32.77;20.39;97492.69;10446677;28;20127;-55
2023/09/13 14:12:13;;;;;;;8.48;3.90;;;;;;;32.63;20.08;97499.38;10448639;28;20032;-55
2023/09/13 14:17:12;;;;;;;9.02;4.47;;;;;;;32.77;20.78;97508.81;10448425;28;20068;-54
2023/09/13 14:22:11;;;;;;;7.35;4.80;;;;;;;32.78;20.69;97510.50;10449657;28;20041;-55
2023/09/13 14:27:10;;;;;;;8.70;4.70;;;;;;;32.78;20.08;97499.72;10450661;28;20070;-54
2023/09/13 14:32:10;;;;;;;8.38;4.78;;;;;;;32.76;20.74;97506.25;10450920;28;20106;-54
2023/09/13 14:37:09;;;;;;;18.75;9.68;;;;;;;32.54;20.61;97507.44;10452192;28;20055;-54
2023/09/13 14:42:08;;;;;;;15.02;10.45;;;;;;;32.40;20.71;97506.91;10448747;28;20043;-55
2023/09/13 14:47:07;;;;;;;9.48;5.03;;;;;;;32.34;20.79;97502.13;10451954;28;20629;-54
2023/09/13 14:52:05;;;;;;;83.97;65.18;;;;;;;32.28;20.75;97505.38;10450557;28;20433;-54
2023/09/13 14:57:04;;;;;;;15.48;9.43;;;;;;;31.74;21.68;97472.78;10449717;28;20463;-55
2023/09/13 15:02:04;;;;;;;10.05;4.72;;;;;;;31.73;22.88;97505.97;10451100;28;20435;-54
2023/09/13 15:07:03;;;;;;;7.82;4.28;;;;;;;31.68;22.81;97500.16;10451453;28;20059;-54
2023/09/13 15:12:02;;;;;;;17.33;8.88;;;;;;;31.40;23.43;97507.16;10447239;28;20051;-55
2023/09/13 15:17:02;;;;;;;11.48;8.75;;;;;;;31.27;23.32;97510.09;10445753;28;20123;-55
2023/09/13 15:22:01;;;;;;;9.02;5.20;;;;;;;31.24;23.46;97507.69;10446651;28;20051;-55
2023/09/13 15:27:00;;;;;;;8.73;4.47;;;;;;;31.08;23.90;97510.91;10446554;28;20107;-56
2023/09/13 15:32:00;;;;;;;8.50;4.88;;;;;;;30.80;24.20;97485.66;10442154;28;20111;-55
2023/09/13 15:36:59;;;;;;;11.57;4.50;;;;;;;30.78;24.13;97517.09;10444852;28;20542;-54
2023/09/13 15:41:58;;;;;;;14.57;8.13;;;;;;;30.64;24.87;97523.66;10444606;28;20603;-55
2023/09/13 15:46:57;;;;;;;10.75;5.10;;;;;;;30.54;24.69;97526.28;10446599;28;20465;-55
2023/09/13 15:51:56;;;;;;;144.40;111.75;;;;;;;30.29;25.57;97521.31;10445176;28;20445;-55
2023/09/13 15:56:55;;;;;;;10.50;6.05;;;;;;;30.10;25.22;97517.50;10446418;28;20515;-55
2023/09/13 16:01:54;;;;;;;12.90;6.70;;;;;;;29.83;25.83;97530.50;10446440;28;20032;-55
2023/09/13 16:06:53;;;;;;;19.17;6.32;;;;;;;29.68;26.01;97538.81;10447673;28;20030;-55
2023/09/13 16:11:52;;;;;;;16.67;6.80;;;;;;;29.56;26.64;97547.00;10453580;28;20059;-55
2023/09/13 16:16:51;;;;;;;12.70;5.95;;;;;;;29.33;27.62;97549.72;10452684;28;20471;-55
2023/09/13 16:21:50;;;;;;;10.27;6.18;;;;;;;29.01;28.48;97565.63;10452217;28;20426;-54
2023/09/13 16:26:49;;;;;;;16.13;6.80;;;;;;;28.65;29.57;97549.66;10453636;28;20115;-55
2023/09/13 16:31:48;;;;;;;17.70;6.28;;;;;;;28.32;29.79;97562.97;10451957;28;20032;-54
2023/09/13 16:36:47;;;;;;;20.90;6.43;;;;;;;27.98;30.47;97552.97;10452538;28;20024;-54
2023/09/13 16:41:46;;;;;;;13.68;6.18;;;;;;;27.67;31.45;97558.91;10453717;28;20036;-54
2023/09/13 16:46:45;;;;;;;10.85;5.15;;;;;;;27.33;32.43;97571.97;10453573;28;20050;-54
2023/09/13 16:51:44;;;;;;;19.00;6.10;;;;;;;26.82;33.24;97542.78;10452425;28;20040;-54
2023/09/13 16:56:43;;;;;;;15.02;6.18;;;;;;;26.31;34.17;97517.84;10453351;28;20112;-54
2023/09/13 17:01:42;;;;;;;16.60;6.97;;;;;;;26.34;34.43;97576.16;10453387;28;20108;-54
2023/09/13 17:06:41;;;;;;;18.35;7.93;;;;;;;26.05;34.96;97590.56;10452944;28;20114;-54
2023/09/13 17:11:40;;;;;;;17.83;7.63;;;;;;;25.59;35.07;97561.69;10455737;28;20086;-54
2023/09/13 17:16:39;;;;;;;13.35;7.75;;;;;;;25.49;35.64;97603.91;10455649;28;20511;-54
2023/09/13 17:21:39;;;;;;;12.05;6.57;;;;;;;25.28;35.73;97601.66;10454513;28;20712;-54
2023/09/13 17:26:38;;;;;;;19.88;7.00;;;;;;;25.03;36.00;97593.53;10454422;28;20064;-54
2023/09/13 17:31:37;;;;;;;14.40;7.40;;;;;;;24.85;36.69;97604.31;10453912;28;20106;-54
2023/09/13 17:36:36;;;;;;;16.02;7.80;;;;;;;24.67;37.95;97621.34;10454785;28;20020;-54
2023/09/13 17:41:39;;;;;;;19.92;8.98;;;;;;;24.28;38.90;97625.41;10454819;28;20529;-54
2023/09/13 17:46:38;;;;;;;15.20;7.50;;;;;;;24.13;39.77;97631.59;10454937;28;20071;-54
2023/09/13 17:51:37;;;;;;;15.77;7.28;;;;;;;24.00;39.92;97642.88;10454472;28;20066;-54
2023/09/13 17:56:36;;;;;;;16.35;7.15;;;;;;;23.79;40.34;97637.00;10453680;28;20023;-54
2023/09/13 18:01:35;;;;;;;16.40;7.18;;;;;;;23.70;40.28;97649.91;10454210;28;20066;-54
2023/09/13 18:06:34;;;;;;;12.73;6.70;;;;;;;23.30;40.91;97607.06;10453918;28;20024;-54
2023/09/13 18:11:33;;;;;;;18.20;8.27;;;;;;;23.39;41.04;97651.59;10451586;28;20102;-54
2023/09/13 18:16:32;;;;;;;16.35;7.60;;;;;;;23.26;41.38;97653.22;10449507;28;20055;-54
2023/09/13 18:21:31;;;;;;;16.60;8.68;;;;;;;22.15;42.07;97498.47;10449776;28;20048;-54
2023/09/13 18:26:30;;;;;;;15.65;7.90;;;;;;;22.51;42.21;97584.78;10449822;28;20028;-54
2023/09/13 18:31:29;;;;;;;16.48;8.23;;;;;;;22.74;43.11;97670.91;10447385;28;20051;-54
2023/09/13 18:36:28;;;;;;;16.98;8.80;;;;;;;21.97;43.62;97553.13;10450097;28;20015;-54
2023/09/13 18:41:27;;;;;;;17.15;8.43;;;;;;;22.57;43.91;97669.06;10448900;28;20028;-54
2023/09/13 18:46:26;;;;;;;18.65;9.13;;;;;;;22.37;44.35;97651.56;10449192;28;20830;-53
2023/09/13 18:51:25;;;;;;;25.70;9.20;;;;;;;22.41;44.89;97678.69;10449552;28;20091;-54
2023/09/13 18:56:24;;;;;;;17.95;8.73;;;;;;;22.25;45.30;97678.63;10448983;28;20633;-55
2023/09/13 19:01:23;;;;;;;18.08;8.35;;;;;;;22.04;45.94;97677.00;10448447;28;20024;-55
2023/09/13 19:06:22;;;;;;;16.58;9.55;;;;;;;21.51;46.32;97634.59;10448115;28;20115;-55
2023/09/13 19:11:24;;;;;;;21.15;10.65;;;;;;;21.65;46.73;97676.19;10447538;28;20043;-55
2023/09/13 19:16:23;;;;;;;20.17;9.07;;;;;;;21.53;47.24;97688.19;10448568;28;20775;-55
2023/09/13 19:21:22;;;;;;;17.17;9.82;;;;;;;21.30;47.34;97657.56;10448951;28;20426;-55
2023/09/13 19:26:21;;;;;;;17.30;9.70;;;;;;;21.13;47.88;97657.44;10447176;28;20032;-55
2023/09/13 19:31:22;;;;;;;19.85;9.90;;;;;;;21.33;48.15;97685.59;10447813;28;20089;-55
2023/09/13 19:36:21;;;;;;;18.63;9.57;;;;;;;21.24;48.52;97686.00;10445890;28;20535;-55
2023/09/13 19:41:20;;;;;;;23.13;9.23;;;;;;;21.07;49.01;97694.66;10445613;28;20550;-55
2023/09/13 19:46:19;;;;;;;21.27;10.02;;;;;;;20.83;49.37;97663.16;10451897;28;20031;-55
2023/09/13 19:51:18;;;;;;;24.52;11.02;;;;;;;20.77;49.49;97676.59;10453791;28;20544;-54
2023/09/13 19:56:17;;;;;;;19.30;11.27;;;;;;;20.74;49.81;97694.34;10455530;28;20044;-55
2023/09/13 20:01:17;;;;;;;17.13;10.98;;;;;;;20.62;50.01;97696.59;10455718;28;20426;-54
2023/09/13 20:06:16;;;;;;;23.20;10.27;;;;;;;20.62;49.89;97701.84;10455748;28;20128;-55
2023/09/13 20:11:15;;;;;;;17.90;9.73;;;;;;;20.28;50.15;97658.44;10454440;28;20055;-54
2023/09/13 20:16:14;;;;;;;15.70;8.90;;;;;;;20.45;50.45;97701.72;10455003;28;20068;-55
2023/09/13 20:21:15;;;;;;;16.05;9.73;;;;;;;20.39;50.98;97697.50;10454175;28;20127;-54
2023/09/13 20:26:14;;;;;;;17.80;10.77;;;;;;;20.27;51.38;97711.19;10454879;28;21096;-54
2023/09/13 20:31:18;;;;;;;19.05;8.57;;;;;;;19.79;53.24;97709.59;10454672;28;20472;-54
2023/09/13 20:36:17;;;;;;;19.00;9.45;;;;;;;19.39;54.02;97672.47;10454531;28;20066;-54
2023/09/13 20:41:17;;;;;;;16.52;9.43;;;;;;;19.50;53.96;97682.59;10454586;28;20063;-54
2023/09/13 20:46:17;;;;;;;14.88;8.10;;;;;;;19.35;54.27;97677.91;10452607;28;20116;-54
2023/09/13 20:51:16;;;;;;;11.93;8.55;;;;;;;19.33;54.64;97698.16;10453431;28;20070;-54
2023/09/13 20:56:15;;;;;;;18.05;8.05;;;;;;;18.72;56.23;97662.66;10453819;28;20523;-55
2023/09/13 21:01:14;;;;;;;14.55;8.20;;;;;;;18.97;55.90;97702.09;10453065;28;20482;-55
2023/09/13 21:06:13;;;;;;;18.20;8.15;;;;;;;19.00;55.77;97712.47;10453372;28;20059;-54
2023/09/13 21:11:11;;;;;;;11.63;7.65;;;;;;;18.85;56.51;97702.50;10453526;28;20067;-54
2023/09/13 21:16:10;;;;;;;14.90;7.78;;;;;;;18.82;56.67;97713.13;10451664;28;20042;-55
2023/09/13 21:21:09;;;;;;;15.43;7.95;;;;;;;18.84;56.37;97692.03;10452138;28;20542;-54
2023/09/13 21:26:08;;;;;;;13.57;7.38;;;;;;;18.90;56.29;97708.47;10452012;28;20103;-54
2023/09/13 21:31:07;;;;;;;14.02;6.97;;;;;;;18.86;57.01;97717.38;10452705;28;20036;-54
2023/09/13 21:36:06;;;;;;;13.48;8.07;;;;;;;18.85;56.80;97710.38;10452471;28;20110;-54
2023/09/13 21:41:10;;;;;;;13.55;7.63;;;;;;;18.81;56.69;97711.41;10450542;28;20032;-54
2023/09/13 21:46:09;;;;;;;13.05;7.30;;;;;;;18.72;57.45;97723.09;10451744;28;20059;-54
2023/09/13 21:51:10;;;;;;;14.40;7.90;;;;;;;18.66;57.55;97719.78;10451330;28;20151;-55
2023/09/13 21:56:09;;;;;;;16.77;9.30;;;;;;;18.53;58.22;97712.31;10451711;28;20057;-54
2023/09/13 22:01:08;;;;;;;12.20;8.30;;;;;;;18.05;58.12;97628.97;10450625;28;20023;-54
2023/09/13 22:06:07;;;;;;;12.00;7.35;;;;;;;18.51;58.62;97706.25;10450258;28;20123;-55
2023/09/13 22:11:07;;;;;;;12.15;8.05;;;;;;;18.23;59.42;97674.78;10452885;28;20075;-54
2023/09/13 22:16:08;;;;;;;13.43;8.23;;;;;;;18.15;60.01;97668.91;10451803;28;20109;-54
2023/09/13 22:21:07;;;;;;;12.63;8.95;;;;;;;18.09;60.07;97672.63;10451223;28;20063;-54
2023/09/13 22:26:06;;;;;;;14.02;8.57;;;;;;;18.12;61.16;97706.66;10447730;28;20055;-54
2023/09/13 22:31:05;;;;;;;14.32;8.30;;;;;;;18.13;61.26;97700.50;10452448;28;20060;-54
2023/09/13 22:36:07;;;;;;;13.77;7.88;;;;;;;18.12;61.41;97697.91;10451834;28;20146;-54
2023/09/13 22:41:06;;;;;;;12.68;8.23;;;;;;;17.90;62.41;97674.13;10452862;28;20051;-54
2023/09/13 22:46:07;;;;;;;14.98;8.20;;;;;;;17.90;63.13;97697.75;10452241;28;20059;-54
2023/09/13 22:51:06;;;;;;;14.20;8.80;;;;;;;17.56;63.59;97641.00;10451142;28;20083;-53
2023/09/13 22:56:05;;;;;;;18.42;8.43;;;;;;;17.83;63.31;97706.72;10452127;28;20109;-55
2023/09/13 23:01:08;;;;;;;14.45;8.15;;;;;;;17.81;63.89;97705.91;10452036;28;20936;-54
2023/09/13 23:06:07;;;;;;;16.00;7.95;;;;;;;17.87;63.54;97709.22;10452060;28;20441;-54